sensor_id;sensor_type;location;lat;lon;timestamp;temperature;humidity
27226;DHT22;14732;51.074;3.788;2023-03-01T00:01:09;2.20;99.90
27226;DHT22;14732;51.074;3.788;2023-03-01T00:03:35;2.20;99.90
27226;DHT22;14732;51.074;3.788;2023-03-01T00:06:01;2.10;99.90
27226;DHT22;14732;51.074;3.788;2023-03-01T00:08:27;2.00;99.90
27226;DHT22;14732;51.074;3.788;2023-03-01T00:11:27;2.00;99.90
27226;DHT22;14732;51.074;3.788;2023-03-01T00:13:53;2.00;99.90
27226;DHT22;14732;51.074;3.788;2023-03-01T00:16:41;2.00;99.90
27226;DHT22;14732;51.074;3.788;2023-03-01T00:19:09;2.10;99.90
27226;DHT22;14732;51.074;3.788;2023-03-01T00:21:36;2.10;99.90
27226;DHT22;14732;51.074;3.788;2023-03-01T00:24:02;2.00;99.90
27226;DHT22;14732;51.074;3.788;2023-03-01T00:26:28;2.10;99.90
27226;DHT22;14732;51.074;3.788;2023-03-01T00:28:54;2.00;99.90
27226;DHT22;14732;51.074;3.788;2023-03-01T00:31:25;2.00;99.90
27226;DHT22;14732;51.074;3.788;2023-03-01T00:33:57;2.00;99.90
27226;DHT22;14732;51.074;3.788;2023-03-01T00:36:25;2.00;99.90
27226;DHT22;14732;51.074;3.788;2023-03-01T00:38:51;2.00;99.90
27226;DHT22;14732;51.074;3.788;2023-03-01T00:41:18;2.00;99.90
27226;DHT22;14732;51.074;3.788;2023-03-01T00:43:44;2.00;99.90
27226;DHT22;14732;51.074;3.788;2023-03-01T00:46:13;2.00;99.90
27226;DHT22;14732;51.074;3.788;2023-03-01T00:48:39;2.00;99.90
27226;DHT22;14732;51.074;3.788;2023-03-01T00:51:07;2.00;99.90
27226;DHT22;14732;51.074;3.788;2023-03-01T00:53:34;2.00;99.90
27226;DHT22;14732;51.074;3.788;2023-03-01T00:56:00;2.00;99.90
27226;DHT22;14732;51.074;3.788;2023-03-01T00:58:25;2.00;99.90
27226;DHT22;14732;51.074;3.788;2023-03-01T01:00:51;2.00;99.90
27226;DHT22;14732;51.074;3.788;2023-03-01T01:03:18;2.00;99.90
27226;DHT22;14732;51.074;3.788;2023-03-01T01:05:44;2.00;99.90
27226;DHT22;14732;51.074;3.788;2023-03-01T01:08:10;1.90;99.90
27226;DHT22;14732;51.074;3.788;2023-03-01T01:10:36;1.80;99.90
27226;DHT22;14732;51.074;3.788;2023-03-01T01:13:01;1.80;99.90
27226;DHT22;14732;51.074;3.788;2023-03-01T01:15:27;1.70;99.90
27226;DHT22;14732;51.074;3.788;2023-03-01T01:17:53;1.70;99.90
27226;DHT22;14732;51.074;3.788;2023-03-01T01:20:18;1.60;99.90
27226;DHT22;14732;51.074;3.788;2023-03-01T01:22:44;1.60;99.90
27226;DHT22;14732;51.074;3.788;2023-03-01T01:25:10;1.60;99.90
27226;DHT22;14732;51.074;3.788;2023-03-01T01:27:36;1.60;99.90
27226;DHT22;14732;51.074;3.788;2023-03-01T01:30:02;1.60;99.90
27226;DHT22;14732;51.074;3.788;2023-03-01T01:32:29;1.60;99.90
27226;DHT22;14732;51.074;3.788;2023-03-01T01:34:54;1.60;99.90
27226;DHT22;14732;51.074;3.788;2023-03-01T01:37:20;1.60;99.90
27226;DHT22;14732;51.074;3.788;2023-03-01T01:39:46;1.60;99.90
27226;DHT22;14732;51.074;3.788;2023-03-01T01:42:16;1.60;99.90
27226;DHT22;14732;51.074;3.788;2023-03-01T01:44:45;1.60;99.90
27226;DHT22;14732;51.074;3.788;2023-03-01T01:47:20;1.60;99.90
27226;DHT22;14732;51.074;3.788;2023-03-01T01:49:50;1.70;99.90
27226;DHT22;14732;51.074;3.788;2023-03-01T01:52:24;1.70;99.90
27226;DHT22;14732;51.074;3.788;2023-03-01T01:54:54;1.70;99.90
27226;DHT22;14732;51.074;3.788;2023-03-01T01:57:28;1.70;99.90
27226;DHT22;14732;51.074;3.788;2023-03-01T01:59:57;1.80;99.90
27226;DHT22;14732;51.074;3.788;2023-03-01T02:02:24;1.80;99.90
27226;DHT22;14732;51.074;3.788;2023-03-01T02:04:55;1.80;99.90
27226;DHT22;14732;51.074;3.788;2023-03-01T02:07:24;1.80;99.90
27226;DHT22;14732;51.074;3.788;2023-03-01T02:09:52;1.80;99.90
27226;DHT22;14732;51.074;3.788;2023-03-01T02:12:21;1.70;99.90
27226;DHT22;14732;51.074;3.788;2023-03-01T02:14:48;1.70;99.90
27226;DHT22;14732;51.074;3.788;2023-03-01T02:17:16;1.60;99.90
27226;DHT22;14732;51.074;3.788;2023-03-01T02:20:16;1.60;99.90
27226;DHT22;14732;51.074;3.788;2023-03-01T02:22:45;1.50;99.90
27226;DHT22;14732;51.074;3.788;2023-03-01T02:30:22;1.50;99.90
27226;DHT22;14732;51.074;3.788;2023-03-01T02:32:50;1.40;99.90
27226;DHT22;14732;51.074;3.788;2023-03-01T02:35:17;1.40;99.90
27226;DHT22;14732;51.074;3.788;2023-03-01T02:37:44;1.30;99.90
27226;DHT22;14732;51.074;3.788;2023-03-01T02:40:17;1.30;99.90
27226;DHT22;14732;51.074;3.788;2023-03-01T02:42:53;1.20;99.90
27226;DHT22;14732;51.074;3.788;2023-03-01T02:45:20;1.20;99.90
27226;DHT22;14732;51.074;3.788;2023-03-01T02:47:46;1.20;99.90
27226;DHT22;14732;51.074;3.788;2023-03-01T02:52:57;1.20;99.90
27226;DHT22;14732;51.074;3.788;2023-03-01T02:55:26;1.20;99.90
27226;DHT22;14732;51.074;3.788;2023-03-01T02:57:53;1.20;99.90
27226;DHT22;14732;51.074;3.788;2023-03-01T03:00:30;1.20;99.90
27226;DHT22;14732;51.074;3.788;2023-03-01T03:02:58;1.30;99.90
27226;DHT22;14732;51.074;3.788;2023-03-01T03:05:28;1.30;99.90
27226;DHT22;14732;51.074;3.788;2023-03-01T03:07:54;1.30;99.90
27226;DHT22;14732;51.074;3.788;2023-03-01T03:10:28;1.20;99.90
27226;DHT22;14732;51.074;3.788;2023-03-01T03:12:59;1.10;99.90
27226;DHT22;14732;51.074;3.788;2023-03-01T03:15:26;1.10;99.90
27226;DHT22;14732;51.074;3.788;2023-03-01T03:17:53;1.10;99.90
27226;DHT22;14732;51.074;3.788;2023-03-01T03:20:22;1.00;99.90
27226;DHT22;14732;51.074;3.788;2023-03-01T03:22:50;1.20;99.90
27226;DHT22;14732;51.074;3.788;2023-03-01T03:25:17;1.10;99.90
27226;DHT22;14732;51.074;3.788;2023-03-01T03:27:45;1.10;99.90
27226;DHT22;14732;51.074;3.788;2023-03-01T03:30:14;1.10;99.90
27226;DHT22;14732;51.074;3.788;2023-03-01T03:32:41;1.10;99.90
27226;DHT22;14732;51.074;3.788;2023-03-01T03:35:09;1.00;99.90
27226;DHT22;14732;51.074;3.788;2023-03-01T03:37:44;1.00;99.90
27226;DHT22;14732;51.074;3.788;2023-03-01T03:40:31;1.10;99.90
27226;DHT22;14732;51.074;3.788;2023-03-01T03:42:56;1.10;99.90
27226;DHT22;14732;51.074;3.788;2023-03-01T03:45:22;1.20;99.90
27226;DHT22;14732;51.074;3.788;2023-03-01T03:47:48;1.10;99.90
27226;DHT22;14732;51.074;3.788;2023-03-01T03:50:16;1.10;99.90
27226;DHT22;14732;51.074;3.788;2023-03-01T03:52:42;1.10;99.90
27226;DHT22;14732;51.074;3.788;2023-03-01T03:55:09;1.10;99.90
27226;DHT22;14732;51.074;3.788;2023-03-01T03:57:40;1.10;99.90
27226;DHT22;14732;51.074;3.788;2023-03-01T04:00:09;1.00;99.90
27226;DHT22;14732;51.074;3.788;2023-03-01T04:02:45;1.00;99.90
27226;DHT22;14732;51.074;3.788;2023-03-01T04:05:13;1.10;99.90
27226;DHT22;14732;51.074;3.788;2023-03-01T04:07:40;1.00;99.90
27226;DHT22;14732;51.074;3.788;2023-03-01T04:10:12;1.00;99.90
27226;DHT22;14732;51.074;3.788;2023-03-01T04:12:38;0.90;99.90
27226;DHT22;14732;51.074;3.788;2023-03-01T04:15:06;1.00;99.90
27226;DHT22;14732;51.074;3.788;2023-03-01T04:17:46;1.00;99.90
27226;DHT22;14732;51.074;3.788;2023-03-01T04:20:17;1.00;99.90
27226;DHT22;14732;51.074;3.788;2023-03-01T04:22:56;1.00;99.90
27226;DHT22;14732;51.074;3.788;2023-03-01T04:25:23;1.00;99.90
27226;DHT22;14732;51.074;3.788;2023-03-01T04:27:49;1.10;99.90
27226;DHT22;14732;51.074;3.788;2023-03-01T04:30:16;1.10;99.90
27226;DHT22;14732;51.074;3.788;2023-03-01T04:32:42;1.10;99.90
27226;DHT22;14732;51.074;3.788;2023-03-01T04:35:08;1.10;99.90
27226;DHT22;14732;51.074;3.788;2023-03-01T04:37:34;1.10;99.90
27226;DHT22;14732;51.074;3.788;2023-03-01T04:40:03;1.10;99.90
27226;DHT22;14732;51.074;3.788;2023-03-01T04:42:41;1.10;99.90
27226;DHT22;14732;51.074;3.788;2023-03-01T04:45:08;1.10;99.90
27226;DHT22;14732;51.074;3.788;2023-03-01T04:47:42;1.10;99.90
27226;DHT22;14732;51.074;3.788;2023-03-01T04:50:12;1.10;99.90
27226;DHT22;14732;51.074;3.788;2023-03-01T04:52:38;1.10;99.90
27226;DHT22;14732;51.074;3.788;2023-03-01T04:55:05;1.10;99.90
27226;DHT22;14732;51.074;3.788;2023-03-01T04:57:31;1.10;99.90
27226;DHT22;14732;51.074;3.788;2023-03-01T04:59:57;1.10;99.90
27226;DHT22;14732;51.074;3.788;2023-03-01T05:02:23;1.00;99.90
27226;DHT22;14732;51.074;3.788;2023-03-01T05:04:49;0.90;99.90
27226;DHT22;14732;51.074;3.788;2023-03-01T05:07:14;0.90;99.90
27226;DHT22;14732;51.074;3.788;2023-03-01T05:09:48;0.90;99.90
27226;DHT22;14732;51.074;3.788;2023-03-01T05:12:14;0.90;99.90
27226;DHT22;14732;51.074;3.788;2023-03-01T05:14:40;1.00;99.90
27226;DHT22;14732;51.074;3.788;2023-03-01T05:17:07;0.90;99.90
27226;DHT22;14732;51.074;3.788;2023-03-01T05:19:34;0.90;99.90
27226;DHT22;14732;51.074;3.788;2023-03-01T05:22:01;0.90;99.90
27226;DHT22;14732;51.074;3.788;2023-03-01T05:24:27;0.80;99.90
27226;DHT22;14732;51.074;3.788;2023-03-01T05:26:53;0.80;99.90
27226;DHT22;14732;51.074;3.788;2023-03-01T05:29:20;0.90;99.90
27226;DHT22;14732;51.074;3.788;2023-03-01T05:31:58;1.00;99.90
27226;DHT22;14732;51.074;3.788;2023-03-01T05:34:28;0.80;99.90
27226;DHT22;14732;51.074;3.788;2023-03-01T05:36:54;0.80;99.90
27226;DHT22;14732;51.074;3.788;2023-03-01T05:39:22;0.80;99.90
27226;DHT22;14732;51.074;3.788;2023-03-01T05:41:52;0.80;99.90
27226;DHT22;14732;51.074;3.788;2023-03-01T05:44:19;0.70;99.90
27226;DHT22;14732;51.074;3.788;2023-03-01T05:46:45;0.70;99.90
27226;DHT22;14732;51.074;3.788;2023-03-01T05:49:12;0.60;99.90
27226;DHT22;14732;51.074;3.788;2023-03-01T05:51:41;0.70;99.90
27226;DHT22;14732;51.074;3.788;2023-03-01T05:54:08;0.70;99.90
27226;DHT22;14732;51.074;3.788;2023-03-01T05:56:34;0.70;99.90
27226;DHT22;14732;51.074;3.788;2023-03-01T05:59:01;0.70;99.90
27226;DHT22;14732;51.074;3.788;2023-03-01T06:01:27;0.70;99.90
27226;DHT22;14732;51.074;3.788;2023-03-01T06:03:53;0.80;99.90
27226;DHT22;14732;51.074;3.788;2023-03-01T06:06:18;0.80;99.90
27226;DHT22;14732;51.074;3.788;2023-03-01T06:08:44;0.70;99.90
27226;DHT22;14732;51.074;3.788;2023-03-01T06:11:10;0.70;99.90
27226;DHT22;14732;51.074;3.788;2023-03-01T06:13:36;0.80;99.90
27226;DHT22;14732;51.074;3.788;2023-03-01T06:16:05;0.80;99.90
27226;DHT22;14732;51.074;3.788;2023-03-01T06:18:31;0.70;99.90
27226;DHT22;14732;51.074;3.788;2023-03-01T06:20:56;0.80;99.90
27226;DHT22;14732;51.074;3.788;2023-03-01T06:23:23;0.80;99.90
27226;DHT22;14732;51.074;3.788;2023-03-01T06:25:49;0.70;99.90
27226;DHT22;14732;51.074;3.788;2023-03-01T06:28:15;0.70;99.90
27226;DHT22;14732;51.074;3.788;2023-03-01T06:30:41;0.70;99.90
27226;DHT22;14732;51.074;3.788;2023-03-01T06:33:07;0.60;99.90
27226;DHT22;14732;51.074;3.788;2023-03-01T06:35:32;0.60;99.90
27226;DHT22;14732;51.074;3.788;2023-03-01T06:37:59;0.60;99.90
27226;DHT22;14732;51.074;3.788;2023-03-01T06:40:25;0.60;99.90
27226;DHT22;14732;51.074;3.788;2023-03-01T06:42:51;0.60;99.90
27226;DHT22;14732;51.074;3.788;2023-03-01T06:45:18;0.70;99.90
27226;DHT22;14732;51.074;3.788;2023-03-01T06:47:44;0.70;99.90
27226;DHT22;14732;51.074;3.788;2023-03-01T06:50:11;0.70;99.90
27226;DHT22;14732;51.074;3.788;2023-03-01T06:52:37;0.70;99.90
27226;DHT22;14732;51.074;3.788;2023-03-01T06:55:03;0.70;99.90
27226;DHT22;14732;51.074;3.788;2023-03-01T06:57:29;0.80;99.90
27226;DHT22;14732;51.074;3.788;2023-03-01T06:59:55;0.80;99.90
27226;DHT22;14732;51.074;3.788;2023-03-01T07:02:20;0.90;99.90
27226;DHT22;14732;51.074;3.788;2023-03-01T07:04:46;0.80;99.90
27226;DHT22;14732;51.074;3.788;2023-03-01T07:07:13;0.80;99.90
27226;DHT22;14732;51.074;3.788;2023-03-01T07:09:39;0.90;99.90
27226;DHT22;14732;51.074;3.788;2023-03-01T07:12:05;1.00;99.90
27226;DHT22;14732;51.074;3.788;2023-03-01T07:14:31;1.00;99.90
27226;DHT22;14732;51.074;3.788;2023-03-01T07:16:56;1.00;99.90
27226;DHT22;14732;51.074;3.788;2023-03-01T07:19:22;1.00;99.90
27226;DHT22;14732;51.074;3.788;2023-03-01T07:21:48;1.20;99.90
27226;DHT22;14732;51.074;3.788;2023-03-01T07:24:14;1.30;99.90
27226;DHT22;14732;51.074;3.788;2023-03-01T07:26:39;1.40;99.90
27226;DHT22;14732;51.074;3.788;2023-03-01T07:29:07;1.40;99.90
27226;DHT22;14732;51.074;3.788;2023-03-01T07:31:33;1.50;99.90
27226;DHT22;14732;51.074;3.788;2023-03-01T07:33:59;1.70;99.90
27226;DHT22;14732;51.074;3.788;2023-03-01T07:36:25;2.10;99.90
27226;DHT22;14732;51.074;3.788;2023-03-01T07:38:50;3.20;99.90
27226;DHT22;14732;51.074;3.788;2023-03-01T07:41:16;4.60;99.90
27226;DHT22;14732;51.074;3.788;2023-03-01T07:43:42;4.80;99.90
27226;DHT22;14732;51.074;3.788;2023-03-01T07:46:08;4.60;99.90
27226;DHT22;14732;51.074;3.788;2023-03-01T07:48:37;4.60;99.90
27226;DHT22;14732;51.074;3.788;2023-03-01T07:51:04;4.00;99.90
27226;DHT22;14732;51.074;3.788;2023-03-01T07:53:31;4.20;99.90
27226;DHT22;14732;51.074;3.788;2023-03-01T07:56:06;4.30;99.90
27226;DHT22;14732;51.074;3.788;2023-03-01T07:58:34;4.30;99.90
27226;DHT22;14732;51.074;3.788;2023-03-01T08:01:04;4.60;99.90
27226;DHT22;14732;51.074;3.788;2023-03-01T08:03:30;4.60;99.90
27226;DHT22;14732;51.074;3.788;2023-03-01T08:05:59;5.40;99.90
27226;DHT22;14732;51.074;3.788;2023-03-01T08:08:25;5.80;99.90
27226;DHT22;14732;51.074;3.788;2023-03-01T08:10:51;6.50;99.90
27226;DHT22;14732;51.074;3.788;2023-03-01T08:13:17;7.30;99.90
27226;DHT22;14732;51.074;3.788;2023-03-01T08:15:50;7.70;99.90
27226;DHT22;14732;51.074;3.788;2023-03-01T08:18:17;7.20;99.90
27226;DHT22;14732;51.074;3.788;2023-03-01T08:20:44;7.10;99.90
27226;DHT22;14732;51.074;3.788;2023-03-01T08:23:10;7.50;99.90
27226;DHT22;14732;51.074;3.788;2023-03-01T08:25:36;7.00;99.90
27226;DHT22;14732;51.074;3.788;2023-03-01T08:28:01;6.80;99.90
27226;DHT22;14732;51.074;3.788;2023-03-01T08:30:27;7.20;99.90
27226;DHT22;14732;51.074;3.788;2023-03-01T08:32:53;7.00;99.90
27226;DHT22;14732;51.074;3.788;2023-03-01T08:35:19;7.30;99.90
27226;DHT22;14732;51.074;3.788;2023-03-01T08:37:45;8.10;99.90
27226;DHT22;14732;51.074;3.788;2023-03-01T08:40:11;8.50;99.90
27226;DHT22;14732;51.074;3.788;2023-03-01T08:42:39;9.10;99.90
27226;DHT22;14732;51.074;3.788;2023-03-01T08:45:05;9.50;99.90
27226;DHT22;14732;51.074;3.788;2023-03-01T08:47:31;8.60;99.90
27226;DHT22;14732;51.074;3.788;2023-03-01T08:49:59;8.20;99.90
27226;DHT22;14732;51.074;3.788;2023-03-01T08:52:25;8.60;99.90
27226;DHT22;14732;51.074;3.788;2023-03-01T08:54:51;9.10;99.90
27226;DHT22;14732;51.074;3.788;2023-03-01T08:57:17;11.00;99.90
27226;DHT22;14732;51.074;3.788;2023-03-01T08:59:43;13.20;99.90
27226;DHT22;14732;51.074;3.788;2023-03-01T09:02:17;13.80;99.90
27226;DHT22;14732;51.074;3.788;2023-03-01T09:04:43;15.30;96.90
27226;DHT22;14732;51.074;3.788;2023-03-01T09:07:10;14.60;96.40
27226;DHT22;14732;51.074;3.788;2023-03-01T09:09:36;17.20;95.60
27226;DHT22;14732;51.074;3.788;2023-03-01T09:12:03;16.10;91.90
27226;DHT22;14732;51.074;3.788;2023-03-01T09:14:29;17.90;91.40
27226;DHT22;14732;51.074;3.788;2023-03-01T09:16:55;17.70;85.20
27226;DHT22;14732;51.074;3.788;2023-03-01T09:19:21;19.90;81.30
27226;DHT22;14732;51.074;3.788;2023-03-01T09:21:48;19.40;77.70
27226;DHT22;14732;51.074;3.788;2023-03-01T09:24:20;20.60;74.40
27226;DHT22;14732;51.074;3.788;2023-03-01T09:26:48;17.50;77.50
27226;DHT22;14732;51.074;3.788;2023-03-01T09:29:17;17.50;79.30
27226;DHT22;14732;51.074;3.788;2023-03-01T09:31:44;20.00;73.40
27226;DHT22;14732;51.074;3.788;2023-03-01T09:34:11;23.10;65.50
27226;DHT22;14732;51.074;3.788;2023-03-01T09:36:36;24.40;56.90
27226;DHT22;14732;51.074;3.788;2023-03-01T09:39:04;22.60;57.50
27226;DHT22;14732;51.074;3.788;2023-03-01T09:44:45;15.80;69.60
27226;DHT22;14732;51.074;3.788;2023-03-01T09:47:21;15.00;71.90
27226;DHT22;14732;51.074;3.788;2023-03-01T09:50:16;12.60;78.60
27226;DHT22;14732;51.074;3.788;2023-03-01T09:53:11;11.60;83.50
27226;DHT22;14732;51.074;3.788;2023-03-01T09:55:54;10.00;89.20
27226;DHT22;14732;51.074;3.788;2023-03-01T10:03:48;6.90;96.80
27226;DHT22;14732;51.074;3.788;2023-03-01T10:06:21;6.70;98.70
27226;DHT22;14732;51.074;3.788;2023-03-01T10:09:21;6.40;99.90
27226;DHT22;14732;51.074;3.788;2023-03-01T10:11:52;6.70;99.90
27226;DHT22;14732;51.074;3.788;2023-03-01T10:14:36;6.70;99.90
27226;DHT22;14732;51.074;3.788;2023-03-01T10:17:12;6.30;99.90
27226;DHT22;14732;51.074;3.788;2023-03-01T10:19:45;6.30;99.90
27226;DHT22;14732;51.074;3.788;2023-03-01T10:22:28;6.30;99.90
27226;DHT22;14732;51.074;3.788;2023-03-01T10:24:56;6.60;99.90
27226;DHT22;14732;51.074;3.788;2023-03-01T10:27:42;6.30;99.90
27226;DHT22;14732;51.074;3.788;2023-03-01T10:30:22;6.20;99.90
27226;DHT22;14732;51.074;3.788;2023-03-01T10:32:50;6.30;99.90
27226;DHT22;14732;51.074;3.788;2023-03-01T10:35:28;6.50;99.90
27226;DHT22;14732;51.074;3.788;2023-03-01T10:38:05;6.70;99.90
27226;DHT22;14732;51.074;3.788;2023-03-01T10:40:36;6.50;99.90
27226;DHT22;14732;51.074;3.788;2023-03-01T10:43:15;6.30;99.90
27226;DHT22;14732;51.074;3.788;2023-03-01T10:45:40;6.30;99.90
27226;DHT22;14732;51.074;3.788;2023-03-01T10:48:18;6.20;99.90
27226;DHT22;14732;51.074;3.788;2023-03-01T10:51:05;6.40;99.90
27226;DHT22;14732;51.074;3.788;2023-03-01T10:53:37;6.70;99.90
27226;DHT22;14732;51.074;3.788;2023-03-01T10:56:14;6.90;99.90
27226;DHT22;14732;51.074;3.788;2023-03-01T10:59:04;6.50;99.90
27226;DHT22;14732;51.074;3.788;2023-03-01T11:01:35;6.30;99.90
27226;DHT22;14732;51.074;3.788;2023-03-01T11:06:36;6.40;99.90
27226;DHT22;14732;51.074;3.788;2023-03-01T11:09:17;6.50;99.90
27226;DHT22;14732;51.074;3.788;2023-03-01T11:11:44;6.50;99.90
27226;DHT22;14732;51.074;3.788;2023-03-01T11:14:18;6.50;99.90
27226;DHT22;14732;51.074;3.788;2023-03-01T11:16:57;6.50;99.90
27226;DHT22;14732;51.074;3.788;2023-03-01T11:19:24;6.50;99.90
27226;DHT22;14732;51.074;3.788;2023-03-01T11:21:59;6.40;99.90
27226;DHT22;14732;51.074;3.788;2023-03-01T11:24:36;6.40;99.90
27226;DHT22;14732;51.074;3.788;2023-03-01T11:27:12;6.50;99.90
27226;DHT22;14732;51.074;3.788;2023-03-01T11:29:52;6.60;99.90
27226;DHT22;14732;51.074;3.788;2023-03-01T11:32:23;6.60;99.90
27226;DHT22;14732;51.074;3.788;2023-03-01T11:35:11;6.60;99.90
27226;DHT22;14732;51.074;3.788;2023-03-01T11:37:40;6.60;99.90
27226;DHT22;14732;51.074;3.788;2023-03-01T11:51:54;6.90;99.90
27226;DHT22;14732;51.074;3.788;2023-03-01T11:54:45;7.00;99.90
27226;DHT22;14732;51.074;3.788;2023-03-01T12:00:15;6.80;99.90
27226;DHT22;14732;51.074;3.788;2023-03-01T12:03:06;6.90;99.90
27226;DHT22;14732;51.074;3.788;2023-03-01T12:13:54;7.00;99.90
27226;DHT22;14732;51.074;3.788;2023-03-01T12:19:15;7.30;99.90
27226;DHT22;14732;51.074;3.788;2023-03-01T12:28:24;7.20;99.90
27226;DHT22;14732;51.074;3.788;2023-03-01T12:46:33;7.30;99.90
27226;DHT22;14732;51.074;3.788;2023-03-01T12:48:43;7.30;99.90
27226;DHT22;14732;51.074;3.788;2023-03-01T12:51:15;7.40;99.90
27226;DHT22;14732;51.074;3.788;2023-03-01T12:53:48;7.30;99.50
27226;DHT22;14732;51.074;3.788;2023-03-01T12:56:27;7.20;99.90
27226;DHT22;14732;51.074;3.788;2023-03-01T13:07:12;7.30;99.90
27226;DHT22;14732;51.074;3.788;2023-03-01T13:17:51;7.70;99.90
27226;DHT22;14732;51.074;3.788;2023-03-01T13:20:33;7.70;99.90
27226;DHT22;14732;51.074;3.788;2023-03-01T13:23:03;7.70;99.90
27226;DHT22;14732;51.074;3.788;2023-03-01T13:25:30;7.70;99.90
27226;DHT22;14732;51.074;3.788;2023-03-01T13:28:36;7.60;99.90
27226;DHT22;14732;51.074;3.788;2023-03-01T13:31:05;7.60;99.90
27226;DHT22;14732;51.074;3.788;2023-03-01T13:33:37;7.50;99.90
27226;DHT22;14732;51.074;3.788;2023-03-01T13:36:07;7.60;99.90
27226;DHT22;14732;51.074;3.788;2023-03-01T13:38:47;7.60;99.90
27226;DHT22;14732;51.074;3.788;2023-03-01T13:41:15;7.60;99.90
27226;DHT22;14732;51.074;3.788;2023-03-01T13:43:44;7.70;99.90
27226;DHT22;14732;51.074;3.788;2023-03-01T13:46:19;7.60;99.90
27226;DHT22;14732;51.074;3.788;2023-03-01T13:48:50;7.50;99.90
27226;DHT22;14732;51.074;3.788;2023-03-01T13:51:25;7.70;99.90
27226;DHT22;14732;51.074;3.788;2023-03-01T13:53:52;7.60;99.90
27226;DHT22;14732;51.074;3.788;2023-03-01T13:56:27;7.60;99.90
27226;DHT22;14732;51.074;3.788;2023-03-01T13:59:04;7.70;99.90
27226;DHT22;14732;51.074;3.788;2023-03-01T14:01:34;8.00;99.90
27226;DHT22;14732;51.074;3.788;2023-03-01T14:04:02;7.80;99.90
27226;DHT22;14732;51.074;3.788;2023-03-01T14:06:33;7.80;99.90
27226;DHT22;14732;51.074;3.788;2023-03-01T14:09:10;8.00;99.90
27226;DHT22;14732;51.074;3.788;2023-03-01T14:11:48;8.00;99.90
27226;DHT22;14732;51.074;3.788;2023-03-01T14:14:40;8.00;99.90
27226;DHT22;14732;51.074;3.788;2023-03-01T14:17:15;7.90;99.90
27226;DHT22;14732;51.074;3.788;2023-03-01T14:19:46;7.90;99.90
27226;DHT22;14732;51.074;3.788;2023-03-01T14:22:28;7.90;99.90
27226;DHT22;14732;51.074;3.788;2023-03-01T14:24:59;7.90;99.90
27226;DHT22;14732;51.074;3.788;2023-03-01T14:27:41;8.00;99.90
27226;DHT22;14732;51.074;3.788;2023-03-01T14:30:21;8.00;99.90
27226;DHT22;14732;51.074;3.788;2023-03-01T14:32:57;8.00;99.90
27226;DHT22;14732;51.074;3.788;2023-03-01T14:35:31;8.00;99.90
27226;DHT22;14732;51.074;3.788;2023-03-01T14:37:57;7.90;99.90
27226;DHT22;14732;51.074;3.788;2023-03-01T14:42:51;8.20;99.90
27226;DHT22;14732;51.074;3.788;2023-03-01T14:45:18;8.30;99.90
27226;DHT22;14732;51.074;3.788;2023-03-01T14:47:44;8.40;99.90
27226;DHT22;14732;51.074;3.788;2023-03-01T14:50:31;8.30;99.90
27226;DHT22;14732;51.074;3.788;2023-03-01T14:53:02;8.10;99.90
27226;DHT22;14732;51.074;3.788;2023-03-01T14:55:41;8.00;99.90
27226;DHT22;14732;51.074;3.788;2023-03-01T14:58:18;8.00;99.90
27226;DHT22;14732;51.074;3.788;2023-03-01T15:00:53;7.90;99.90
27226;DHT22;14732;51.074;3.788;2023-03-01T15:03:41;7.80;99.90
27226;DHT22;14732;51.074;3.788;2023-03-01T15:06:08;7.80;99.90
27226;DHT22;14732;51.074;3.788;2023-03-01T15:08:35;7.80;99.90
27226;DHT22;14732;51.074;3.788;2023-03-01T15:11:27;7.70;99.90
27226;DHT22;14732;51.074;3.788;2023-03-01T15:13:53;7.70;99.90
27226;DHT22;14732;51.074;3.788;2023-03-01T15:16:31;7.60;99.90
27226;DHT22;14732;51.074;3.788;2023-03-01T15:19:00;7.60;99.90
27226;DHT22;14732;51.074;3.788;2023-03-01T15:21:35;7.60;99.90
27226;DHT22;14732;51.074;3.788;2023-03-01T15:27:12;7.70;99.90
27226;DHT22;14732;51.074;3.788;2023-03-01T15:29:33;7.70;99.90
27226;DHT22;14732;51.074;3.788;2023-03-01T15:32:04;7.80;99.90
27226;DHT22;14732;51.074;3.788;2023-03-01T15:34:38;7.80;99.90
27226;DHT22;14732;51.074;3.788;2023-03-01T15:37:46;7.90;99.90
27226;DHT22;14732;51.074;3.788;2023-03-01T15:40:22;7.80;99.90
27226;DHT22;14732;51.074;3.788;2023-03-01T15:42:57;7.70;99.90
27226;DHT22;14732;51.074;3.788;2023-03-01T15:45:26;7.70;99.90
27226;DHT22;14732;51.074;3.788;2023-03-01T15:48:00;7.60;99.90
27226;DHT22;14732;51.074;3.788;2023-03-01T15:50:32;7.70;99.90
27226;DHT22;14732;51.074;3.788;2023-03-01T15:53:00;7.80;99.90
27226;DHT22;14732;51.074;3.788;2023-03-01T15:55:29;7.60;99.90
27226;DHT22;14732;51.074;3.788;2023-03-01T15:58:10;7.50;99.90
27226;DHT22;14732;51.074;3.788;2023-03-01T16:00:37;7.50;99.90
27226;DHT22;14732;51.074;3.788;2023-03-01T16:03:05;7.70;99.90
27226;DHT22;14732;51.074;3.788;2023-03-01T16:05:33;7.60;99.90
27226;DHT22;14732;51.074;3.788;2023-03-01T16:08:00;7.40;99.90
27226;DHT22;14732;51.074;3.788;2023-03-01T16:10:26;7.40;99.90
27226;DHT22;14732;51.074;3.788;2023-03-01T16:12:53;7.50;99.90
27226;DHT22;14732;51.074;3.788;2023-03-01T16:17:46;7.60;99.90
27226;DHT22;14732;51.074;3.788;2023-03-01T16:20:12;7.40;99.90
27226;DHT22;14732;51.074;3.788;2023-03-01T16:22:44;7.30;99.90
27226;DHT22;14732;51.074;3.788;2023-03-01T16:25:12;7.20;99.90
27226;DHT22;14732;51.074;3.788;2023-03-01T16:27:38;7.10;99.90
27226;DHT22;14732;51.074;3.788;2023-03-01T16:30:07;7.10;99.90
27226;DHT22;14732;51.074;3.788;2023-03-01T16:32:38;7.30;99.90
27226;DHT22;14732;51.074;3.788;2023-03-01T16:35:05;7.40;99.90
27226;DHT22;14732;51.074;3.788;2023-03-01T16:37:32;7.50;99.90
27226;DHT22;14732;51.074;3.788;2023-03-01T16:39:58;7.40;99.90
27226;DHT22;14732;51.074;3.788;2023-03-01T16:42:24;7.40;99.90
27226;DHT22;14732;51.074;3.788;2023-03-01T16:44:55;7.30;99.90
27226;DHT22;14732;51.074;3.788;2023-03-01T16:47:21;7.30;99.90
27226;DHT22;14732;51.074;3.788;2023-03-01T16:49:47;7.20;99.90
27226;DHT22;14732;51.074;3.788;2023-03-01T16:52:13;7.10;99.90
27226;DHT22;14732;51.074;3.788;2023-03-01T16:54:38;7.00;99.90
27226;DHT22;14732;51.074;3.788;2023-03-01T16:57:04;7.00;99.90
27226;DHT22;14732;51.074;3.788;2023-03-01T16:59:31;6.90;99.90
27226;DHT22;14732;51.074;3.788;2023-03-01T17:01:58;6.80;99.90
27226;DHT22;14732;51.074;3.788;2023-03-01T17:04:25;6.80;99.90
27226;DHT22;14732;51.074;3.788;2023-03-01T17:06:51;6.80;99.90
27226;DHT22;14732;51.074;3.788;2023-03-01T17:09:16;6.60;99.90
27226;DHT22;14732;51.074;3.788;2023-03-01T17:11:42;6.50;99.90
27226;DHT22;14732;51.074;3.788;2023-03-01T17:14:08;6.40;99.90
27226;DHT22;14732;51.074;3.788;2023-03-01T17:16:34;6.30;99.90
27226;DHT22;14732;51.074;3.788;2023-03-01T17:19:00;6.40;99.90
27226;DHT22;14732;51.074;3.788;2023-03-01T17:21:26;6.40;99.90
27226;DHT22;14732;51.074;3.788;2023-03-01T17:23:56;6.30;99.90
27226;DHT22;14732;51.074;3.788;2023-03-01T17:26:22;6.20;99.90
27226;DHT22;14732;51.074;3.788;2023-03-01T17:28:49;6.20;99.90
27226;DHT22;14732;51.074;3.788;2023-03-01T17:31:18;6.20;99.90
27226;DHT22;14732;51.074;3.788;2023-03-01T17:33:45;6.30;99.90